createdAt,value
2023-05-10T00:00:07.502Z,12.31
2023-05-10T00:01:09.627Z,12.20
2023-05-10T00:02:11.756Z,12.21
2023-05-10T00:03:13.923Z,12.23
2023-05-10T00:04:16.179Z,12.20
2023-05-10T00:05:18.375Z,12.14
2023-05-10T00:06:21.319Z,12.09
2023-05-10T00:07:23.475Z,12.10
2023-05-10T00:08:25.612Z,12.08
2023-05-10T00:09:28.057Z,12.05
2023-05-10T00:10:30.303Z,11.97
2023-05-10T00:11:32.560Z,11.87
2023-05-10T00:12:34.702Z,11.86
2023-05-10T00:13:36.805Z,11.89
2023-05-10T00:14:38.948Z,11.87
2023-05-10T00:15:41.126Z,11.87
2023-05-10T00:16:43.260Z,11.83
2023-05-10T00:17:45.439Z,11.81
2023-05-10T00:18:47.531Z,11.77
2023-05-10T00:19:49.692Z,11.71
2023-05-10T00:20:52.028Z,11.70
2023-05-10T00:21:54.123Z,11.62
2023-05-10T00:22:56.217Z,11.60
2023-05-10T00:23:58.302Z,11.63
2023-05-10T00:25:00.777Z,11.65
2023-05-10T00:26:03.024Z,11.67
2023-05-10T00:27:05.145Z,11.69
2023-05-10T00:28:07.233Z,11.64
2023-05-10T00:29:09.296Z,11.64
2023-05-10T00:30:11.451Z,11.65
2023-05-10T00:31:13.960Z,11.58
2023-05-10T00:32:16.166Z,11.50
2023-05-10T00:33:19.339Z,11.49
2023-05-10T00:34:21.843Z,11.48
2023-05-10T00:35:24.219Z,11.50
2023-05-10T00:36:26.460Z,11.47
2023-05-10T00:37:28.752Z,11.38
2023-05-10T00:38:30.868Z,11.30
2023-05-10T00:39:32.988Z,11.33
2023-05-10T00:40:36.995Z,11.33
2023-05-10T00:41:39.286Z,11.32
2023-05-10T00:42:41.671Z,11.28
2023-05-10T00:43:43.966Z,11.25
2023-05-10T00:44:46.160Z,11.30
2023-05-10T00:45:48.353Z,11.19
2023-05-10T00:46:50.591Z,11.17
2023-05-10T00:47:56.097Z,11.15
2023-05-10T00:48:58.518Z,11.09
2023-05-10T00:50:01.690Z,11.05
2023-05-10T00:51:04.297Z,11.09
2023-05-10T00:52:07.109Z,11.07
2023-05-10T00:53:09.957Z,11.04
2023-05-10T00:54:16.084Z,11.01
2023-05-10T00:55:18.958Z,10.99
2023-05-10T00:56:24.034Z,10.90
2023-05-10T00:57:26.248Z,10.83
2023-05-10T00:58:29.400Z,10.80
2023-05-10T00:59:31.774Z,10.81
2023-05-10T01:00:34.670Z,10.81
2023-05-10T01:01:37.369Z,10.79
2023-05-10T01:02:39.750Z,10.81
2023-05-10T01:03:42.634Z,10.80
2023-05-10T01:04:44.807Z,10.76
2023-05-10T01:05:46.993Z,10.77
2023-05-10T01:06:49.138Z,10.78
2023-05-10T01:07:51.244Z,10.80
2023-05-10T01:08:53.376Z,10.81
2023-05-10T01:09:55.484Z,10.81
2023-05-10T01:10:58.217Z,10.81
2023-05-10T01:12:00.829Z,10.78
2023-05-10T01:13:04.158Z,10.85
2023-05-10T01:14:07.106Z,10.88
2023-05-10T01:15:11.929Z,10.85
2023-05-10T01:16:14.366Z,10.84
2023-05-10T01:17:17.382Z,10.87
2023-05-10T01:18:21.324Z,10.87
2023-05-10T01:19:25.321Z,10.88
2023-05-10T01:20:29.423Z,10.88
2023-05-10T01:21:44.492Z,10.90
2023-05-10T01:23:24.753Z,10.89
2023-05-10T01:24:50.290Z,10.90
2023-05-10T01:25:58.267Z,10.84
2023-05-10T01:27:18.679Z,10.85
2023-05-10T01:28:45.754Z,10.93
2023-05-10T01:29:58.313Z,10.94
2023-05-10T01:31:42.167Z,10.93
2023-05-10T01:32:47.328Z,10.94
2023-05-10T01:33:57.836Z,10.95
2023-05-10T01:35:18.832Z,10.91
2023-05-10T01:36:30.675Z,10.94
2023-05-10T01:38:11.632Z,11.00
2023-05-10T01:39:39.770Z,11.01
2023-05-10T01:40:52.046Z,10.99
2023-05-10T01:42:00.392Z,10.99
2023-05-10T01:43:05.421Z,11.04
2023-05-10T01:44:45.569Z,11.03
2023-05-10T01:46:13.405Z,11.05
2023-05-10T01:47:32.422Z,11.14
2023-05-10T01:48:34.780Z,11.16
2023-05-10T01:49:42.400Z,11.23
2023-05-10T01:50:45.019Z,11.22
2023-05-10T01:51:52.695Z,11.21
2023-05-10T01:52:56.338Z,11.20
2023-05-10T01:54:03.627Z,11.24
2023-05-10T01:55:17.683Z,11.29
2023-05-10T01:56:22.340Z,11.32
2023-05-10T01:57:27.546Z,11.37
2023-05-10T01:58:32.978Z,11.38
2023-05-10T01:59:41.903Z,11.39
2023-05-10T02:00:45.860Z,11.39
2023-05-10T02:01:48.697Z,11.41
2023-05-10T02:02:51.851Z,11.38
2023-05-10T02:03:55.294Z,11.40
2023-05-10T02:04:58.263Z,11.39
2023-05-10T02:06:00.724Z,11.37
2023-05-10T02:07:03.260Z,11.33
2023-05-10T02:08:07.988Z,11.36
2023-05-10T02:09:10.411Z,11.34
2023-05-10T02:10:12.983Z,11.42
2023-05-10T02:11:15.299Z,11.44
2023-05-10T02:12:18.532Z,11.51
2023-05-10T02:13:20.899Z,11.54
2023-05-10T02:14:25.424Z,11.58
2023-05-10T02:15:27.897Z,11.58
2023-05-10T02:16:32.034Z,11.59
2023-05-10T02:17:35.955Z,11.59
2023-05-10T02:18:38.380Z,11.54
2023-05-10T02:19:41.927Z,11.57
2023-05-10T02:20:45.625Z,11.57
2023-05-10T02:21:47.842Z,11.57
2023-05-10T02:22:52.061Z,11.57
2023-05-10T02:23:55.330Z,11.57
2023-05-10T02:24:59.143Z,11.57
2023-05-10T02:26:01.324Z,11.61
2023-05-10T02:27:04.686Z,11.60
2023-05-10T02:28:07.978Z,11.62
2023-05-10T02:29:10.819Z,11.64
2023-05-10T02:30:13.169Z,11.72
2023-05-10T02:31:15.734Z,11.76
2023-05-10T02:32:19.159Z,11.77
2023-05-10T02:33:21.923Z,11.82
2023-05-10T02:34:26.801Z,11.88
2023-05-10T02:35:29.311Z,11.91
2023-05-10T02:36:32.484Z,11.91
2023-05-10T02:37:35.714Z,11.93
2023-05-10T02:38:37.984Z,11.97
2023-05-10T02:39:44.716Z,11.97
2023-05-10T02:40:47.763Z,11.97
2023-05-10T02:41:50.486Z,11.87
2023-05-10T02:42:53.593Z,11.87
2023-05-10T02:43:58.667Z,11.83
2023-05-10T02:45:02.422Z,11.83
2023-05-10T02:46:04.912Z,11.83
2023-05-10T02:47:07.088Z,11.85
2023-05-10T02:48:09.206Z,11.84
2023-05-10T02:49:11.677Z,11.84
2023-05-10T02:50:14.166Z,11.83
2023-05-10T02:51:18.720Z,11.80
2023-05-10T02:52:25.916Z,11.82
2023-05-10T02:53:33.084Z,11.83
2023-05-10T02:54:41.035Z,11.88
2023-05-10T02:55:44.585Z,11.86
2023-05-10T02:56:57.749Z,11.91
2023-05-10T02:58:02.086Z,11.86
2023-05-10T02:59:04.241Z,11.84
2023-05-10T03:00:07.080Z,11.84
2023-05-10T03:01:09.701Z,11.78
2023-05-10T03:02:13.493Z,11.75
2023-05-10T03:03:15.630Z,11.75
2023-05-10T03:04:17.799Z,11.72
2023-05-10T03:05:20.383Z,11.70
2023-05-10T03:06:22.494Z,11.71
2023-05-10T03:07:24.834Z,11.69
2023-05-10T03:08:27.314Z,11.69
2023-05-10T03:09:29.875Z,11.70
2023-05-10T03:10:32.731Z,11.67
2023-05-10T03:11:46.396Z,11.62
2023-05-10T03:13:26.137Z,11.62
2023-05-10T03:14:46.656Z,11.62
2023-05-10T03:16:01.507Z,11.57
2023-05-10T03:17:15.292Z,11.51
2023-05-10T03:18:23.583Z,11.48
2023-05-10T03:19:29.829Z,11.48
2023-05-10T03:20:52.485Z,11.45
2023-05-10T03:21:55.654Z,11.48
2023-05-10T03:23:05.904Z,11.44
2023-05-10T03:24:09.356Z,11.39
2023-05-10T03:25:12.592Z,11.41
2023-05-10T03:26:19.364Z,11.41
2023-05-10T03:27:22.391Z,11.38
2023-05-10T03:28:26.156Z,11.37
2023-05-10T03:29:29.167Z,11.35
2023-05-10T03:30:31.783Z,11.32
2023-05-10T03:31:33.970Z,11.30
2023-05-10T03:32:36.766Z,11.30
2023-05-10T03:33:50.170Z,11.29
2023-05-10T03:34:52.264Z,11.27
2023-05-10T03:35:54.415Z,11.28
2023-05-10T03:36:56.530Z,11.32
2023-05-10T03:37:58.589Z,11.33
2023-05-10T03:39:00.749Z,11.36
2023-05-10T03:40:03.711Z,11.37
2023-05-10T03:41:05.914Z,11.37
2023-05-10T03:42:08.017Z,11.37
2023-05-10T03:43:10.106Z,11.36
2023-05-10T03:44:12.244Z,11.36
2023-05-10T03:45:14.401Z,11.38
2023-05-10T03:46:16.557Z,11.38
2023-05-10T03:47:18.662Z,11.39
2023-05-10T03:48:20.781Z,11.42
2023-05-10T03:49:22.879Z,11.47
2023-05-10T03:50:25.519Z,11.45
2023-05-10T03:51:29.199Z,11.48
2023-05-10T03:52:31.301Z,11.48
2023-05-10T03:53:33.400Z,11.48
2023-05-10T03:54:35.532Z,11.51
2023-05-10T03:55:37.720Z,11.53
2023-05-10T03:56:39.771Z,11.54
2023-05-10T03:57:41.838Z,11.54
2023-05-10T03:58:43.994Z,11.54
2023-05-10T03:59:46.370Z,11.58
2023-05-10T04:00:48.523Z,11.60
2023-05-10T04:01:50.749Z,11.60
2023-05-10T04:02:52.978Z,11.60
2023-05-10T04:03:55.248Z,11.65
2023-05-10T04:04:57.650Z,11.67
2023-05-10T04:06:02.087Z,11.68
2023-05-10T04:07:04.537Z,11.59
2023-05-10T04:08:06.881Z,11.58
2023-05-10T04:09:09.395Z,11.59
2023-05-10T04:10:12.162Z,11.60
2023-05-10T04:11:15.163Z,11.65
2023-05-10T04:12:17.401Z,11.69
2023-05-10T04:13:20.060Z,11.67
2023-05-10T04:14:22.234Z,11.70
2023-05-10T04:15:24.486Z,11.70
2023-05-10T04:16:26.652Z,11.76
2023-05-10T04:17:28.843Z,11.74
2023-05-10T04:18:31.590Z,11.72
2023-05-10T04:19:33.976Z,11.71
2023-05-10T04:20:36.074Z,11.71
2023-05-10T04:21:38.249Z,11.76
2023-05-10T04:22:40.488Z,11.73
2023-05-10T04:23:42.609Z,11.67
2023-05-10T04:24:44.747Z,11.63
2023-05-10T04:25:47.007Z,11.59
2023-05-10T04:26:49.212Z,11.60
2023-05-10T04:27:51.308Z,11.59
2023-05-10T04:28:53.424Z,11.52
2023-05-10T04:29:55.493Z,11.46
2023-05-10T04:31:08.130Z,11.49
2023-05-10T04:32:11.145Z,11.48
2023-05-10T04:33:13.267Z,11.45
2023-05-10T04:34:15.461Z,11.39
2023-05-10T04:35:17.685Z,11.39
2023-05-10T04:36:19.854Z,11.35
2023-05-10T04:37:23.979Z,11.39
2023-05-10T04:38:26.208Z,11.41
2023-05-10T04:39:28.291Z,11.40
2023-05-10T04:40:30.467Z,11.37
2023-05-10T04:41:32.640Z,11.39
2023-05-10T04:42:34.706Z,11.41
2023-05-10T04:43:37.637Z,11.39
2023-05-10T04:44:39.799Z,11.42
2023-05-10T04:45:41.918Z,11.46
2023-05-10T04:46:44.082Z,11.43
2023-05-10T04:47:46.281Z,11.37
2023-05-10T04:48:48.469Z,11.37
2023-05-10T04:49:50.617Z,11.44
2023-05-10T04:50:52.770Z,11.44
2023-05-10T04:51:54.907Z,11.47
2023-05-10T04:52:57.058Z,11.55
2023-05-10T04:54:05.936Z,11.63
2023-05-10T04:55:10.543Z,11.60
2023-05-10T04:56:12.749Z,11.62
2023-05-10T04:57:14.833Z,11.66
2023-05-10T04:58:17.080Z,11.75
2023-05-10T04:59:19.240Z,11.81
2023-05-10T05:00:21.480Z,11.86
2023-05-10T05:01:24.197Z,11.86
2023-05-10T05:02:26.642Z,11.89
2023-05-10T05:03:28.916Z,11.97
2023-05-10T05:04:32.035Z,12.06
2023-05-10T05:05:34.198Z,12.12
2023-05-10T05:06:36.404Z,12.11
2023-05-10T05:07:39.455Z,12.08
2023-05-10T05:08:41.787Z,12.16
2023-05-10T05:09:43.917Z,12.26
2023-05-10T05:10:46.103Z,12.27
2023-05-10T05:11:48.227Z,12.32
2023-05-10T05:12:50.349Z,12.32
2023-05-10T05:13:52.680Z,12.21
2023-05-10T05:14:54.841Z,12.18
2023-05-10T05:15:57.054Z,12.16
2023-05-10T05:16:59.661Z,12.06
2023-05-10T05:18:01.794Z,12.08
2023-05-10T05:19:04.061Z,12.02
2023-05-10T05:20:06.861Z,12.08
2023-05-10T05:21:16.819Z,12.09
2023-05-10T05:22:20.525Z,12.11
2023-05-10T05:23:25.789Z,12.19
2023-05-10T05:24:27.965Z,12.28
2023-05-10T05:25:30.083Z,12.29
2023-05-10T05:26:32.213Z,12.40
2023-05-10T05:27:34.292Z,12.46
2023-05-10T05:28:38.288Z,12.53
2023-05-10T05:29:40.399Z,12.67
2023-05-10T05:30:42.678Z,12.73
2023-05-10T05:31:44.860Z,12.83
2023-05-10T05:32:48.258Z,12.93
2023-05-10T05:33:50.429Z,12.87
2023-05-10T05:34:52.691Z,12.97
2023-05-10T05:35:54.814Z,13.11
2023-05-10T05:36:56.895Z,13.13
2023-05-10T05:37:59.096Z,13.09
2023-05-10T05:39:01.177Z,13.17
2023-05-10T05:40:03.639Z,13.34
2023-05-10T05:41:05.838Z,13.42
2023-05-10T05:42:07.977Z,13.18
2023-05-10T05:43:10.134Z,13.05
2023-05-10T05:44:12.254Z,13.22
2023-05-10T05:45:14.562Z,13.13
2023-05-10T05:46:17.030Z,13.25
2023-05-10T05:47:19.145Z,13.42
2023-05-10T05:48:21.862Z,13.47
2023-05-10T05:49:24.039Z,13.41
2023-05-10T05:50:26.177Z,13.36
2023-05-10T05:51:28.330Z,13.37
2023-05-10T05:52:31.297Z,13.31
2023-05-10T05:53:33.462Z,13.29
2023-05-10T05:54:35.692Z,13.37
2023-05-10T05:55:37.985Z,13.37
2023-05-10T05:56:40.160Z,13.38
2023-05-10T05:57:42.345Z,13.39
2023-05-10T05:58:45.474Z,13.42
2023-05-10T05:59:47.705Z,13.20
2023-05-10T06:00:50.025Z,13.08
2023-05-10T06:01:52.171Z,13.15
2023-05-10T06:02:54.528Z,13.26
2023-05-10T06:03:56.777Z,13.39
2023-05-10T06:04:58.967Z,13.32
2023-05-10T06:06:01.060Z,13.19
2023-05-10T06:07:03.270Z,13.13
2023-05-10T06:08:05.432Z,13.17
2023-05-10T06:09:07.620Z,13.22
2023-05-10T06:10:10.325Z,13.36
2023-05-10T06:11:12.425Z,13.43
2023-05-10T06:12:14.521Z,13.51
2023-05-10T06:13:16.751Z,13.56
2023-05-10T06:14:21.546Z,13.38
2023-05-10T06:15:23.643Z,13.44
2023-05-10T06:16:25.880Z,13.41
2023-05-10T06:17:28.574Z,13.46
2023-05-10T06:18:30.876Z,13.51
2023-05-10T06:19:33.056Z,13.39
2023-05-10T06:20:35.236Z,13.50
2023-05-10T06:21:37.347Z,13.65
2023-05-10T06:22:39.507Z,13.73
2023-05-10T06:23:41.703Z,13.87
2023-05-10T06:24:44.671Z,14.00
2023-05-10T06:25:46.838Z,14.12
2023-05-10T06:26:50.969Z,14.21
2023-05-10T06:27:58.028Z,14.09
2023-05-10T06:29:00.462Z,13.99
2023-05-10T06:30:12.327Z,13.88
2023-05-10T06:31:15.728Z,13.79
2023-05-10T06:32:18.122Z,13.54
2023-05-10T06:33:20.262Z,13.56
2023-05-10T06:34:22.439Z,13.56
2023-05-10T06:35:24.645Z,13.66
2023-05-10T06:36:27.563Z,13.77
2023-05-10T06:37:29.729Z,13.72
2023-05-10T06:38:31.831Z,13.82
2023-05-10T06:39:33.930Z,13.89
2023-05-10T06:40:37.036Z,13.81
2023-05-10T06:41:39.145Z,13.76
2023-05-10T06:42:41.332Z,13.83
2023-05-10T06:43:44.343Z,13.88
2023-05-10T06:44:46.565Z,13.77
2023-05-10T06:45:51.535Z,13.94
2023-05-10T06:46:54.752Z,14.15
2023-05-10T06:47:57.074Z,14.28
2023-05-10T06:48:59.269Z,14.31
2023-05-10T06:50:01.597Z,14.33
2023-05-10T06:51:03.731Z,14.33
2023-05-10T06:52:05.864Z,14.41
2023-05-10T06:53:08.059Z,14.30
2023-05-10T06:54:10.200Z,14.22
2023-05-10T06:55:12.539Z,14.13
2023-05-10T06:56:15.012Z,14.21
2023-05-10T06:57:30.582Z,14.37
2023-05-10T06:58:33.826Z,14.49
2023-05-10T06:59:37.482Z,14.61
2023-05-10T07:00:41.733Z,14.86
2023-05-10T07:01:43.978Z,15.05
2023-05-10T07:02:46.251Z,14.94
2023-05-10T07:03:48.429Z,14.97
2023-05-10T07:04:51.186Z,15.09
2023-05-10T07:05:53.363Z,15.16
2023-05-10T07:06:55.543Z,15.18
2023-05-10T07:07:57.690Z,15.18
2023-05-10T07:09:00.255Z,14.78
2023-05-10T07:10:02.732Z,15.02
2023-05-10T07:11:06.336Z,15.04
2023-05-10T07:12:10.656Z,15.19
2023-05-10T07:13:13.848Z,15.27
2023-05-10T07:14:16.022Z,14.59
2023-05-10T07:15:18.825Z,14.35
2023-05-10T07:16:22.526Z,14.33
2023-05-10T07:17:24.811Z,14.32
2023-05-10T07:18:27.391Z,14.53
2023-05-10T07:19:30.618Z,14.68
2023-05-10T07:20:32.834Z,14.77
2023-05-10T07:21:36.171Z,14.91
2023-05-10T07:22:38.408Z,14.76
2023-05-10T07:23:41.656Z,14.80
2023-05-10T07:24:45.117Z,15.03
2023-05-10T07:25:50.771Z,15.30
2023-05-10T07:26:52.896Z,15.43
2023-05-10T07:27:55.040Z,15.43
2023-05-10T07:28:57.198Z,14.92
2023-05-10T07:29:59.731Z,14.88
2023-05-10T07:31:01.905Z,14.99
2023-05-10T07:32:04.130Z,15.24
2023-05-10T07:33:06.317Z,15.65
2023-05-10T07:34:08.572Z,15.84
2023-05-10T07:35:10.729Z,16.02
2023-05-10T07:36:12.865Z,15.83
2023-05-10T07:37:14.947Z,15.93
2023-05-10T07:38:18.479Z,15.94
2023-05-10T07:39:27.630Z,16.11
2023-05-10T07:40:30.564Z,16.26
2023-05-10T07:41:35.060Z,16.25
2023-05-10T07:42:38.065Z,16.04
2023-05-10T07:43:40.989Z,16.00
2023-05-10T07:44:43.256Z,16.25
2023-05-10T07:45:45.487Z,16.46
2023-05-10T07:46:48.723Z,16.75
2023-05-10T07:47:51.357Z,16.69
2023-05-10T07:48:53.528Z,16.64
2023-05-10T07:49:55.715Z,16.76
2023-05-10T07:50:57.843Z,16.79
2023-05-10T07:52:00.642Z,16.86
2023-05-10T07:53:02.860Z,16.62
2023-05-10T07:54:05.197Z,16.54
2023-05-10T07:55:08.403Z,16.93
2023-05-10T07:56:31.056Z,17.05
2023-05-10T07:57:33.477Z,16.88
2023-05-10T07:58:35.633Z,16.68
2023-05-10T07:59:37.952Z,16.76
2023-05-10T08:00:41.498Z,16.80
2023-05-10T08:01:44.151Z,16.58
2023-05-10T08:02:46.416Z,16.36
2023-05-10T08:03:49.056Z,16.62
2023-05-10T08:04:51.271Z,16.97
2023-05-10T08:05:53.400Z,17.32
2023-05-10T08:06:55.488Z,17.41
2023-05-10T08:07:57.558Z,17.69
2023-05-10T08:08:59.813Z,17.92
2023-05-10T08:10:02.760Z,17.62
2023-05-10T08:11:05.044Z,17.55
2023-05-10T08:12:07.317Z,17.21
2023-05-10T08:13:09.503Z,17.18
2023-05-10T08:14:11.668Z,17.01
2023-05-10T08:15:13.803Z,16.94
2023-05-10T08:16:16.950Z,16.99
2023-05-10T08:17:20.080Z,16.98
2023-05-10T08:18:22.741Z,17.10
2023-05-10T08:19:25.004Z,17.25
2023-05-10T08:20:27.171Z,17.49
2023-05-10T08:21:29.353Z,17.74
2023-05-10T08:22:31.755Z,17.28
2023-05-10T08:23:33.983Z,17.30
2023-05-10T08:24:39.324Z,17.18
2023-05-10T08:25:41.493Z,17.48
2023-05-10T08:26:43.728Z,17.29
2023-05-10T08:27:45.885Z,17.05
2023-05-10T08:28:48.034Z,17.27
2023-05-10T08:29:50.747Z,17.50
2023-05-10T08:30:53.312Z,17.60
2023-05-10T08:31:55.870Z,17.30
2023-05-10T08:32:58.107Z,17.54
2023-05-10T08:34:00.422Z,17.39
2023-05-10T08:35:02.897Z,16.95
2023-05-10T08:36:05.116Z,16.68
2023-05-10T08:37:07.381Z,16.65
2023-05-10T08:38:09.555Z,16.64
2023-05-10T08:39:19.470Z,16.87
2023-05-10T08:40:29.342Z,17.48
2023-05-10T08:41:34.549Z,17.79
2023-05-10T08:42:38.878Z,17.91
2023-05-10T08:43:42.592Z,17.66
2023-05-10T08:44:44.777Z,17.47
2023-05-10T08:45:48.026Z,17.74
2023-05-10T08:46:53.223Z,17.79
2023-05-10T08:47:55.378Z,17.66
2023-05-10T08:48:58.963Z,17.05
2023-05-10T08:50:01.305Z,17.25
2023-05-10T08:51:04.348Z,17.41
2023-05-10T08:52:08.285Z,17.15
2023-05-10T08:53:12.373Z,17.31
2023-05-10T08:54:14.849Z,17.27
2023-05-10T08:55:17.867Z,17.33
2023-05-10T08:56:21.353Z,17.31
2023-05-10T08:57:23.531Z,17.38
2023-05-10T08:58:26.240Z,17.42
2023-05-10T08:59:28.645Z,17.42
2023-05-10T09:00:30.900Z,17.68
2023-05-10T09:01:33.620Z,17.61
2023-05-10T09:02:36.479Z,17.71
2023-05-10T09:03:39.744Z,18.15
2023-05-10T09:04:42.153Z,18.15
2023-05-10T09:05:45.714Z,18.39
2023-05-10T09:06:47.864Z,18.46
2023-05-10T09:07:50.127Z,18.93
2023-05-10T09:08:53.203Z,18.87
2023-05-10T09:09:55.676Z,19.21
2023-05-10T09:10:58.300Z,19.29
2023-05-10T09:12:00.857Z,19.76
2023-05-10T09:13:03.301Z,20.18
2023-05-10T09:14:05.497Z,18.88
2023-05-10T09:15:08.655Z,18.50
2023-05-10T09:16:21.084Z,18.34
2023-05-10T09:17:26.072Z,17.79
2023-05-10T09:18:28.407Z,18.28
2023-05-10T09:19:30.968Z,18.71
2023-05-10T09:20:33.036Z,18.21
2023-05-10T09:21:39.221Z,18.48
2023-05-10T09:22:41.808Z,19.34
2023-05-10T09:23:48.031Z,19.94
2023-05-10T09:25:05.209Z,19.33
2023-05-10T09:26:07.823Z,18.29
2023-05-10T09:27:10.801Z,18.31
2023-05-10T09:28:13.755Z,18.72
2023-05-10T09:29:17.745Z,18.98
2023-05-10T09:30:30.912Z,19.80
2023-05-10T09:31:59.112Z,20.48
2023-05-10T09:33:02.104Z,20.63
2023-05-10T09:34:04.719Z,19.96
2023-05-10T09:35:08.412Z,19.61
2023-05-10T09:36:10.859Z,20.60
2023-05-10T09:37:13.238Z,20.82
2023-05-10T09:38:16.442Z,20.46
2023-05-10T09:39:19.147Z,19.83
2023-05-10T09:40:23.387Z,19.72
2023-05-10T09:41:26.048Z,19.93
2023-05-10T09:42:28.129Z,19.90
2023-05-10T09:43:38.869Z,19.60
2023-05-10T09:44:42.020Z,19.63
2023-05-10T09:45:44.275Z,19.42
2023-05-10T09:46:50.775Z,19.17
2023-05-10T09:47:53.360Z,19.17
2023-05-10T09:48:55.478Z,19.34
2023-05-10T09:50:03.834Z,19.22
2023-05-10T09:51:06.079Z,19.27
2023-05-10T09:52:09.025Z,19.88
2023-05-10T09:53:15.470Z,20.72
2023-05-10T09:54:17.814Z,21.27
2023-05-10T09:55:25.636Z,22.07
2023-05-10T09:56:36.172Z,22.29
2023-05-10T09:57:38.708Z,22.05
2023-05-10T09:58:41.468Z,20.47
2023-05-10T09:59:44.236Z,20.30
2023-05-10T10:00:48.677Z,19.86
2023-05-10T10:01:51.907Z,19.54
2023-05-10T10:02:58.690Z,20.82
2023-05-10T10:04:04.666Z,21.48
2023-05-10T10:05:08.204Z,22.19
2023-05-10T10:06:18.751Z,22.56
2023-05-10T10:07:28.635Z,23.43
2023-05-10T10:08:30.861Z,23.83
2023-05-10T10:09:33.999Z,23.88
2023-05-10T10:10:36.678Z,24.10
2023-05-10T10:11:39.863Z,24.21
2023-05-10T10:12:42.603Z,23.33
2023-05-10T10:13:45.050Z,23.40
2023-05-10T10:14:48.896Z,23.40
2023-05-10T10:15:52.295Z,23.70
2023-05-10T10:17:06.833Z,24.29
2023-05-10T10:18:15.715Z,24.21
2023-05-10T10:19:21.783Z,24.14
2023-05-10T10:20:25.044Z,24.06
2023-05-10T10:21:27.490Z,23.59
2023-05-10T10:22:29.984Z,23.95
2023-05-10T10:23:32.121Z,23.29
2023-05-10T10:24:34.776Z,22.50
2023-05-10T10:25:36.923Z,22.79
2023-05-10T10:26:39.696Z,22.93
2023-05-10T10:27:53.649Z,23.51
2023-05-10T10:29:26.803Z,23.30
2023-05-10T10:30:43.415Z,24.31
2023-05-10T10:31:56.700Z,24.92
2023-05-10T10:33:28.392Z,25.26
2023-05-10T10:34:31.972Z,25.42
2023-05-10T10:35:34.288Z,25.52
2023-05-10T10:37:05.966Z,23.56
2023-05-10T10:38:09.613Z,22.93
2023-05-10T10:39:11.963Z,22.47
2023-05-10T10:40:27.296Z,21.87
2023-05-10T10:41:34.798Z,21.54
2023-05-10T10:42:47.144Z,21.28
2023-05-10T10:43:49.302Z,21.56
2023-05-10T10:45:14.808Z,21.51
2023-05-10T10:46:18.887Z,21.63
2023-05-10T10:47:30.153Z,21.76
2023-05-10T10:48:32.288Z,21.69
2023-05-10T10:49:39.296Z,22.91
2023-05-10T10:50:46.695Z,23.26
2023-05-10T10:52:14.239Z,22.34
2023-05-10T10:53:16.400Z,22.10
2023-05-10T10:54:28.927Z,22.39
2023-05-10T10:55:31.436Z,22.74
2023-05-10T10:56:34.745Z,22.91
2023-05-10T10:57:42.013Z,22.99
2023-05-10T10:58:52.202Z,23.12
2023-05-10T11:00:23.322Z,23.32
2023-05-10T11:01:33.835Z,24.01
2023-05-10T11:02:49.907Z,24.45
2023-05-10T11:04:01.172Z,24.54
2023-05-10T11:05:25.102Z,23.61
2023-05-10T11:06:32.768Z,23.03
2023-05-10T11:07:35.016Z,22.44
2023-05-10T11:08:47.107Z,22.52
2023-05-10T11:09:49.270Z,22.08
2023-05-10T11:11:13.794Z,21.64
2023-05-10T11:12:16.042Z,22.54
2023-05-10T11:13:28.634Z,23.79
2023-05-10T11:14:32.705Z,24.52
2023-05-10T11:15:39.894Z,25.40
2023-05-10T11:16:44.076Z,26.27
2023-05-10T11:17:48.454Z,25.78
2023-05-10T11:19:00.740Z,24.67
2023-05-10T11:20:15.708Z,24.10
2023-05-10T11:21:18.169Z,23.60
2023-05-10T11:22:20.472Z,22.62
2023-05-10T11:23:22.871Z,22.03
2023-05-10T11:24:28.284Z,21.88
2023-05-10T11:25:30.565Z,21.73
2023-05-10T11:26:34.529Z,21.46
2023-05-10T11:27:38.784Z,21.69
2023-05-10T11:28:48.105Z,22.56
2023-05-10T11:29:53.297Z,23.15
2023-05-10T11:30:55.824Z,23.67
2023-05-10T11:31:59.481Z,23.50
2023-05-10T11:33:01.801Z,22.78
2023-05-10T11:34:04.120Z,22.35
2023-05-10T11:35:10.000Z,21.92
2023-05-10T11:36:16.764Z,21.31
2023-05-10T11:37:19.267Z,21.07
2023-05-10T11:38:21.402Z,21.34
2023-05-10T11:39:33.068Z,22.57
2023-05-10T11:40:36.035Z,23.46
2023-05-10T11:41:38.231Z,22.81
2023-05-10T11:42:40.562Z,22.34
2023-05-10T11:43:43.338Z,21.87
2023-05-10T11:44:47.687Z,21.87
2023-05-10T11:45:49.865Z,20.83
2023-05-10T11:46:53.064Z,20.48
2023-05-10T11:47:55.425Z,20.62
2023-05-10T11:49:07.895Z,20.52
2023-05-10T11:50:11.826Z,20.64
2023-05-10T11:51:14.104Z,20.73
2023-05-10T11:52:16.192Z,20.71
2023-05-10T11:53:18.403Z,20.60
2023-05-10T11:54:20.706Z,20.55
2023-05-10T11:55:23.548Z,20.54
2023-05-10T11:56:27.406Z,20.48
2023-05-10T11:57:29.839Z,20.22
2023-05-10T11:58:32.709Z,20.49
2023-05-10T11:59:34.803Z,20.50
2023-05-10T12:00:37.050Z,20.51
2023-05-10T12:01:39.273Z,20.59
2023-05-10T12:02:41.588Z,20.28
2023-05-10T12:03:43.856Z,20.29
2023-05-10T12:04:46.112Z,20.46
2023-05-10T12:05:48.303Z,20.48
2023-05-10T12:06:50.414Z,20.55
2023-05-10T12:07:52.510Z,20.62
2023-05-10T12:08:54.807Z,20.67
2023-05-10T12:10:04.054Z,20.24
2023-05-10T12:11:08.555Z,20.40
2023-05-10T12:12:10.979Z,20.47
2023-05-10T12:13:15.149Z,20.65
2023-05-10T12:14:17.702Z,20.64
2023-05-10T12:15:24.509Z,20.74
2023-05-10T12:16:30.087Z,20.78
2023-05-10T12:17:32.358Z,20.60
2023-05-10T12:18:34.775Z,20.56
2023-05-10T12:19:40.579Z,20.67
2023-05-10T12:20:42.750Z,20.77
2023-05-10T12:21:45.088Z,20.71
2023-05-10T12:22:54.104Z,20.82
2023-05-10T12:24:01.261Z,21.05
2023-05-10T12:25:03.847Z,21.33
2023-05-10T12:26:06.713Z,21.48
2023-05-10T12:30:05.914Z,20.42
2023-05-10T12:31:08.403Z,20.43
2023-05-10T12:32:10.521Z,20.66
2023-05-10T12:33:16.026Z,20.81
2023-05-10T12:34:28.419Z,21.04
2023-05-10T12:35:34.626Z,21.16
2023-05-10T12:36:39.688Z,21.06
2023-05-10T12:37:41.816Z,20.92
2023-05-10T12:38:48.624Z,21.13
2023-05-10T12:39:50.684Z,21.23
2023-05-10T12:40:52.876Z,21.15
2023-05-10T12:41:54.992Z,20.86
2023-05-10T12:42:57.191Z,20.76
2023-05-10T12:43:59.267Z,20.54
2023-05-10T12:45:01.329Z,20.48
2023-05-10T12:46:17.210Z,20.60
2023-05-10T12:47:19.314Z,20.59
2023-05-10T12:48:21.539Z,20.77
2023-05-10T12:49:23.669Z,20.72
2023-05-10T12:50:25.862Z,20.51
2023-05-10T12:51:28.138Z,20.50
2023-05-10T12:52:30.635Z,20.36
2023-05-10T12:53:32.798Z,20.33
2023-05-10T12:54:34.937Z,20.37
2023-05-10T12:55:37.026Z,20.45
2023-05-10T12:56:39.128Z,20.51
2023-05-10T12:57:41.153Z,20.57
2023-05-10T12:58:49.103Z,20.79
2023-05-10T12:59:51.681Z,20.92
2023-05-10T13:00:54.016Z,21.01
2023-05-10T13:01:56.177Z,21.08
2023-05-10T13:02:58.352Z,20.81
2023-05-10T13:04:01.213Z,20.85
2023-05-10T13:05:03.891Z,21.39
2023-05-10T13:06:07.285Z,21.63
2023-05-10T13:07:09.891Z,21.93
2023-05-10T13:08:12.052Z,22.31
2023-05-10T13:09:14.104Z,22.72
2023-05-10T13:10:17.126Z,22.78
2023-05-10T13:11:20.727Z,22.68
2023-05-10T13:12:22.851Z,22.15
2023-05-10T13:13:24.954Z,21.80
2023-05-10T13:14:27.502Z,21.79
2023-05-10T13:15:29.705Z,21.96
2023-05-10T13:16:32.431Z,22.37
2023-05-10T13:17:34.590Z,22.51
2023-05-10T13:18:36.742Z,22.55
2023-05-10T13:19:38.870Z,23.08
2023-05-10T13:20:41.025Z,22.92
2023-05-10T13:21:43.288Z,23.22
2023-05-10T13:22:45.948Z,23.03
2023-05-10T13:23:48.030Z,22.99
2023-05-10T13:24:50.602Z,22.65
2023-05-10T13:25:52.888Z,22.53
2023-05-10T13:26:54.968Z,22.39
2023-05-10T13:27:57.106Z,22.50
2023-05-10T13:28:59.190Z,22.53
2023-05-10T13:30:04.206Z,22.38
2023-05-10T13:31:06.417Z,22.22
2023-05-10T13:32:08.674Z,22.03
2023-05-10T13:33:11.006Z,22.21
2023-05-10T13:34:13.171Z,22.45
2023-05-10T13:35:15.397Z,22.60
2023-05-10T13:36:17.530Z,21.81
2023-05-10T13:37:19.789Z,21.53
2023-05-10T13:38:22.529Z,21.70
2023-05-10T13:39:24.828Z,21.88
2023-05-10T13:40:26.877Z,21.84
2023-05-10T13:41:28.995Z,21.63
2023-05-10T13:42:32.657Z,21.52
2023-05-10T13:43:34.821Z,21.42
2023-05-10T13:44:37.477Z,21.44
2023-05-10T13:45:39.926Z,21.62
2023-05-10T13:46:43.349Z,21.73
2023-05-10T13:47:45.480Z,22.08
2023-05-10T13:48:47.564Z,22.33
2023-05-10T13:49:49.660Z,23.12
2023-05-10T13:50:51.763Z,23.68